Time;durP1;ratioP1;P1;durP2;ratioP2;P2;SDS_P1;SDS_P2;PMS_P1;PMS_P2;Temp;Humidity;BMP_temperature;BMP_pressure;BME280_temperature;BME280_humidity;BME280_pressure;Samples;Min_cycle;Max_cycle;Signal;HPM_P1;HPM_P2
2022/08/23 00:01:42;;;;;;;13.60;7.47;;;22.20;99.90;;;;;;5072593;28;20241;-71
2022/08/23 00:04:13;;;;;;;18.90;7.60;;;22.20;99.90;;;;;;5071015;28;20216;-71
2022/08/23 00:06:42;;;;;;;17.95;7.72;;;22.10;99.90;;;;;;5071303;28;20202;-71
2022/08/23 00:09:09;;;;;;;17.38;7.88;;;22.20;99.90;;;;;;5070379;28;20208;-69
2022/08/23 00:11:42;;;;;;;20.55;7.63;;;22.10;99.90;;;;;;5072745;28;20214;-70
2022/08/23 00:14:11;;;;;;;16.55;7.72;;;22.10;99.90;;;;;;5072014;28;20746;-70
2022/08/23 00:16:38;;;;;;;17.40;7.50;;;22.10;99.90;;;;;;5072276;28;20212;-70
2022/08/23 00:19:07;;;;;;;17.40;7.95;;;22.00;99.90;;;;;;5072479;28;20209;-70
2022/08/23 00:21:37;;;;;;;16.52;7.15;;;22.10;99.90;;;;;;5070441;28;20733;-70
2022/08/23 00:24:05;;;;;;;16.27;7.38;;;22.00;99.90;;;;;;5063144;28;20201;-70
2022/08/23 00:26:51;;;;;;;19.20;7.93;;;22.00;99.90;;;;;;5071796;28;20219;-69
2022/08/23 00:29:18;;;;;;;21.90;7.75;;;22.00;99.90;;;;;;5072868;28;20720;-69
2022/08/23 00:31:45;;;;;;;18.55;7.43;;;22.10;99.90;;;;;;5070595;28;20216;-69
2022/08/23 00:34:12;;;;;;;23.95;7.78;;;22.10;99.90;;;;;;5060854;28;20229;-69
2022/08/23 00:36:44;;;;;;;26.33;8.02;;;22.10;99.90;;;;;;5067166;28;20633;-70
2022/08/23 00:39:11;;;;;;;14.18;7.13;;;22.10;99.90;;;;;;5071003;28;20267;-70
2022/08/23 00:41:39;;;;;;;16.17;8.13;;;22.10;99.90;;;;;;5071950;28;20209;-69
2022/08/23 00:49:45;;;;;;;18.40;7.28;;;22.10;99.90;;;;;;5071705;28;20282;-69
2022/08/23 00:52:20;;;;;;;19.73;8.75;;;22.10;99.90;;;;;;5070735;28;20197;-69
2022/08/23 00:54:47;;;;;;;18.63;8.07;;;22.00;99.90;;;;;;5070195;28;20212;-69
2022/08/23 00:57:18;;;;;;;18.00;7.35;;;22.10;99.90;;;;;;5070680;28;20208;-70
2022/08/23 00:59:45;;;;;;;16.27;7.40;;;22.10;99.90;;;;;;5071385;28;20208;-69
2022/08/23 01:02:12;;;;;;;15.50;7.85;;;22.10;99.90;;;;;;5069741;28;20237;-70
2022/08/23 01:04:43;;;;;;;20.08;7.60;;;22.10;99.90;;;;;;5069482;28;20205;-69
2022/08/23 01:07:17;;;;;;;20.48;7.70;;;22.10;99.90;;;;;;5070379;28;20673;-70
2022/08/23 01:09:48;;;;;;;25.85;8.10;;;22.00;99.90;;;;;;5071299;28;20301;-69
2022/08/23 01:12:19;;;;;;;19.38;7.15;;;22.00;99.90;;;;;;5070149;28;20650;-70
2022/08/23 01:14:53;;;;;;;13.35;7.25;;;22.00;99.90;;;;;;5071160;28;20205;-70
2022/08/23 01:17:23;;;;;;;20.30;8.38;;;22.20;99.90;;;;;;5071093;28;20200;-70
2022/08/23 01:19:55;;;;;;;15.82;7.88;;;22.00;99.90;;;;;;5064394;28;20220;-69
2022/08/23 01:22:28;;;;;;;16.73;7.95;;;22.10;99.90;;;;;;5066539;28;20228;-69
2022/08/23 01:24:57;;;;;;;16.40;8.10;;;22.00;99.90;;;;;;5070867;28;20205;-70
2022/08/23 01:27:24;;;;;;;17.77;7.45;;;22.00;99.90;;;;;;5065786;28;20209;-69
2022/08/23 01:29:51;;;;;;;17.30;8.23;;;22.00;99.90;;;;;;5071560;28;20236;-70
2022/08/23 01:32:18;;;;;;;17.63;7.88;;;22.00;99.90;;;;;;5066708;28;20225;-69
2022/08/23 01:34:45;;;;;;;23.50;8.05;;;22.10;99.90;;;;;;5069132;28;20209;-70
2022/08/23 01:37:14;;;;;;;17.10;8.10;;;22.10;99.90;;;;;;5070522;28;20468;-69
2022/08/23 01:39:40;;;;;;;15.38;8.07;;;22.10;99.90;;;;;;5071254;28;20209;-70
2022/08/23 01:42:10;;;;;;;17.88;8.38;;;22.10;99.90;;;;;;5071223;28;20220;-70
2022/08/23 01:44:36;;;;;;;16.95;8.55;;;22.20;99.90;;;;;;5070156;28;20241;-71
2022/08/23 01:47:04;;;;;;;17.70;8.75;;;22.00;99.90;;;;;;5072133;28;20574;-71
2022/08/23 01:49:33;;;;;;;19.58;9.70;;;22.00;99.90;;;;;;5070816;28;20552;-70
2022/08/23 01:52:00;;;;;;;21.85;8.10;;;22.00;99.90;;;;;;5063667;28;20218;-70
2022/08/23 01:54:26;;;;;;;18.52;8.95;;;22.00;99.90;;;;;;5069191;28;20209;-70
2022/08/23 01:56:53;;;;;;;18.55;9.35;;;22.00;99.90;;;;;;5071784;28;20656;-70
2022/08/23 01:59:22;;;;;;;22.67;9.70;;;22.00;99.90;;;;;;5071268;28;20216;-71
2022/08/23 02:01:50;;;;;;;21.52;9.10;;;21.90;99.90;;;;;;5070770;28;20232;-70
2022/08/23 02:04:16;;;;;;;19.85;10.00;;;21.80;99.90;;;;;;5069131;28;20316;-71
2022/08/23 02:06:43;;;;;;;16.65;9.98;;;21.70;99.90;;;;;;5071045;28;20693;-70
2022/08/23 02:09:10;;;;;;;16.75;9.02;;;21.70;99.90;;;;;;5072259;28;20645;-71
2022/08/23 02:11:40;;;;;;;21.10;9.48;;;21.70;99.90;;;;;;5071885;28;20216;-71
2022/08/23 02:14:09;;;;;;;15.93;9.15;;;21.60;99.90;;;;;;5070232;28;20204;-71
2022/08/23 02:16:43;;;;;;;16.88;8.50;;;21.60;99.90;;;;;;5071592;28;20220;-70
2022/08/23 02:19:12;;;;;;;18.58;10.25;;;21.50;99.90;;;;;;5069267;28;20197;-70
2022/08/23 02:21:40;;;;;;;14.90;9.18;;;21.50;99.90;;;;;;5070078;28;20574;-69
2022/08/23 02:24:10;;;;;;;16.63;9.23;;;21.40;99.90;;;;;;5069665;28;20217;-70
2022/08/23 02:26:38;;;;;;;16.90;9.23;;;21.40;99.90;;;;;;5069934;28;20330;-70
2022/08/23 02:29:06;;;;;;;18.42;9.77;;;21.30;99.90;;;;;;5069359;28;20662;-70
2022/08/23 02:31:33;;;;;;;13.90;8.38;;;21.40;99.90;;;;;;5070395;28;20212;-70
2022/08/23 02:34:02;;;;;;;17.33;9.27;;;21.40;99.90;;;;;;5068086;28;20224;-71
2022/08/23 02:36:28;;;;;;;12.48;8.60;;;21.40;99.90;;;;;;5068972;28;20824;-70
2022/08/23 02:38:56;;;;;;;17.63;8.90;;;21.50;99.90;;;;;;5070777;28;20592;-71
2022/08/23 02:41:22;;;;;;;13.93;9.18;;;21.50;99.90;;;;;;5073186;28;20213;-70
2022/08/23 02:43:52;;;;;;;12.30;8.38;;;21.50;99.90;;;;;;5072888;28;20232;-72
2022/08/23 02:46:20;;;;;;;16.92;9.13;;;21.50;99.90;;;;;;5073542;28;20205;-71
2022/08/23 02:48:47;;;;;;;17.30;9.05;;;21.50;99.90;;;;;;5072912;28;20667;-70
2022/08/23 02:51:16;;;;;;;17.80;9.25;;;21.50;99.90;;;;;;5071330;28;20781;-71
2022/08/23 02:53:43;;;;;;;15.52;8.75;;;21.40;99.90;;;;;;5064341;28;20233;-71
2022/08/23 02:56:10;;;;;;;17.80;8.63;;;21.40;99.90;;;;;;5072930;28;20236;-70
2022/08/23 02:58:38;;;;;;;17.17;9.57;;;21.50;99.90;;;;;;5072821;28;20210;-70
2022/08/23 03:01:06;;;;;;;15.48;9.23;;;21.40;99.90;;;;;;5071903;28;20312;-70
2022/08/23 03:03:33;;;;;;;13.25;8.65;;;21.40;99.90;;;;;;5070194;28;20221;-71
2022/08/23 03:05:59;;;;;;;18.42;9.52;;;21.30;99.90;;;;;;5072471;28;20213;-71
2022/08/23 03:08:27;;;;;;;14.70;9.43;;;21.30;99.90;;;;;;5070931;28;20237;-71
2022/08/23 03:10:55;;;;;;;19.08;9.73;;;21.30;99.90;;;;;;5071755;28;20209;-70
2022/08/23 03:13:21;;;;;;;14.10;9.20;;;21.40;99.90;;;;;;5068935;28;20213;-70
2022/08/23 03:15:48;;;;;;;11.45;8.40;;;21.40;99.90;;;;;;5069131;28;20216;-71
2022/08/23 03:18:16;;;;;;;14.00;9.82;;;21.40;99.90;;;;;;5072817;28;20209;-71
2022/08/23 03:20:43;;;;;;;17.67;10.20;;;21.40;99.90;;;;;;5071387;28;20254;-70
2022/08/23 03:23:10;;;;;;;13.75;9.65;;;21.30;99.90;;;;;;5070713;28;20604;-71
2022/08/23 03:25:39;;;;;;;12.43;8.82;;;21.30;99.90;;;;;;5069876;28;20462;-71
2022/08/23 03:28:07;;;;;;;12.73;8.82;;;21.20;99.90;;;;;;5067512;28;20507;-71
2022/08/23 03:30:34;;;;;;;14.77;8.68;;;21.20;99.90;;;;;;5065783;28;20197;-70
2022/08/23 03:33:01;;;;;;;14.30;9.30;;;21.20;99.90;;;;;;5070246;28;20223;-70
2022/08/23 03:35:29;;;;;;;14.23;9.40;;;21.10;99.90;;;;;;5071839;28;20575;-70
2022/08/23 03:37:56;;;;;;;11.80;8.40;;;21.10;99.90;;;;;;5070797;28;20213;-71
2022/08/23 03:40:22;;;;;;;15.60;8.90;;;21.20;99.90;;;;;;5070595;28;20217;-70
2022/08/23 03:42:51;;;;;;;14.48;8.73;;;21.20;99.90;;;;;;5071066;28;20216;-70
2022/08/23 03:45:18;;;;;;;14.02;8.45;;;21.20;99.90;;;;;;5067549;28;20197;-71
2022/08/23 03:47:45;;;;;;;13.57;8.23;;;21.20;99.90;;;;;;5070130;28;20211;-70
2022/08/23 03:50:12;;;;;;;12.48;8.77;;;21.20;99.90;;;;;;5071022;28;20201;-71
2022/08/23 03:52:39;;;;;;;14.27;8.82;;;21.20;99.90;;;;;;5069820;28;20219;-70
2022/08/23 03:55:06;;;;;;;19.02;8.80;;;21.20;99.90;;;;;;5070822;28;20615;-71
2022/08/23 03:57:33;;;;;;;13.32;8.63;;;21.20;99.90;;;;;;5071012;28;20212;-71
2022/08/23 04:00:02;;;;;;;14.20;8.50;;;21.30;99.90;;;;;;5071469;28;20262;-71
2022/08/23 04:02:28;;;;;;;13.88;8.95;;;21.20;99.90;;;;;;5069974;28;20202;-70
2022/08/23 04:04:56;;;;;;;13.93;9.38;;;21.20;99.90;;;;;;5071584;28;20225;-72
2022/08/23 04:07:23;;;;;;;15.18;10.60;;;21.20;99.90;;;;;;5070703;28;20224;-71
2022/08/23 04:09:50;;;;;;;13.50;9.98;;;21.20;99.90;;;;;;5071880;28;20224;-71
2022/08/23 04:12:17;;;;;;;12.38;8.98;;;21.20;99.90;;;;;;5069823;28;20212;-70
2022/08/23 04:14:45;;;;;;;14.75;8.55;;;21.20;99.90;;;;;;5070846;28;20573;-70
2022/08/23 04:17:14;;;;;;;13.93;8.38;;;21.20;99.90;;;;;;5062355;28;20245;-70
2022/08/23 04:19:41;;;;;;;13.15;8.13;;;21.20;99.90;;;;;;5071500;28;20201;-71
2022/08/23 04:22:12;;;;;;;12.23;8.82;;;21.20;99.90;;;;;;5068172;28;20236;-70
2022/08/23 04:24:39;;;;;;;13.52;9.10;;;21.30;99.90;;;;;;5071201;28;20221;-71
2022/08/23 04:27:06;;;;;;;15.63;9.23;;;21.30;99.90;;;;;;5069096;28;20533;-70
2022/08/23 04:29:33;;;;;;;17.40;9.05;;;21.40;99.90;;;;;;5071445;28;20197;-71
2022/08/23 04:32:00;;;;;;;16.55;8.73;;;21.40;99.90;;;;;;5070314;28;20571;-71
2022/08/23 04:34:28;;;;;;;16.13;9.25;;;21.50;99.90;;;;;;5069542;28;20209;-71
2022/08/23 04:36:55;;;;;;;14.18;8.95;;;21.50;99.90;;;;;;5071215;28;20224;-70
2022/08/23 04:39:22;;;;;;;13.23;8.52;;;21.50;99.90;;;;;;5071593;28;20264;-70
2022/08/23 04:44:34;;;;;;;14.10;8.07;;;21.50;99.90;;;;;;5072198;28;20708;-68
2022/08/23 04:47:01;;;;;;;11.43;8.82;;;21.50;99.90;;;;;;5068431;28;20617;-68
2022/08/23 04:49:29;;;;;;;12.30;7.78;;;21.60;99.90;;;;;;5062450;28;20224;-68
2022/08/23 04:51:56;;;;;;;14.95;8.45;;;21.60;99.90;;;;;;5068795;28;20232;-68
2022/08/23 04:54:23;;;;;;;12.82;8.88;;;21.70;99.90;;;;;;5070250;28;20209;-68
2022/08/23 04:56:50;;;;;;;15.35;9.73;;;21.70;99.90;;;;;;5068400;28;20262;-70
2022/08/23 04:59:17;;;;;;;12.60;8.13;;;21.80;99.90;;;;;;5067871;28;20610;-69
2022/08/23 05:01:44;;;;;;;11.80;7.63;;;21.80;99.90;;;;;;5062230;28;20565;-68
2022/08/23 05:04:11;;;;;;;12.10;9.00;;;21.80;99.90;;;;;;5068065;28;20217;-68
2022/08/23 05:06:39;;;;;;;13.43;7.70;;;21.80;99.90;;;;;;5067800;28;20205;-69
2022/08/23 05:09:06;;;;;;;12.15;7.95;;;21.80;99.90;;;;;;5069445;28;20205;-69
2022/08/23 05:11:32;;;;;;;13.05;9.23;;;21.80;99.90;;;;;;5068937;28;20650;-69
2022/08/23 05:14:00;;;;;;;11.77;8.57;;;21.80;99.90;;;;;;5069605;28;20216;-69
2022/08/23 05:16:27;;;;;;;10.50;8.48;;;21.80;99.90;;;;;;5069543;28;20209;-69
2022/08/23 05:18:54;;;;;;;13.52;9.13;;;21.80;99.90;;;;;;5066754;28;20665;-69
2022/08/23 05:21:22;;;;;;;15.77;8.15;;;21.80;99.90;;;;;;5068149;28;20212;-68
2022/08/23 05:23:50;;;;;;;13.05;8.40;;;21.80;99.90;;;;;;5067837;28;20221;-69
2022/08/23 05:26:18;;;;;;;15.70;8.50;;;21.80;99.90;;;;;;5070048;28;20642;-69
2022/08/23 05:28:47;;;;;;;11.70;7.78;;;21.80;99.90;;;;;;5068922;28;20665;-68
2022/08/23 05:31:17;;;;;;;11.10;7.45;;;21.70;99.90;;;;;;5069513;28;20262;-68
2022/08/23 05:33:44;;;;;;;15.65;8.25;;;21.70;99.90;;;;;;5068948;28;20212;-69
2022/08/23 05:36:13;;;;;;;14.68;8.55;;;21.70;99.90;;;;;;5063856;28;20241;-68
2022/08/23 05:38:41;;;;;;;12.57;7.65;;;21.70;99.90;;;;;;5069004;28;20215;-68
2022/08/23 05:41:09;;;;;;;13.07;8.18;;;21.70;99.90;;;;;;5067655;28;20208;-68
2022/08/23 05:43:37;;;;;;;13.10;8.02;;;21.90;99.90;;;;;;5068854;28;20224;-69
2022/08/23 05:46:09;;;;;;;8.63;7.32;;;21.90;99.90;;;;;;5068997;28;20205;-69
2022/08/23 05:48:38;;;;;;;12.48;7.50;;;22.00;99.90;;;;;;5067643;28;20557;-69
2022/08/23 05:51:12;;;;;;;11.18;7.30;;;22.10;99.90;;;;;;5067163;28;20213;-68
2022/08/23 05:53:40;;;;;;;13.95;7.45;;;22.20;99.90;;;;;;5069681;28;20207;-68
2022/08/23 05:56:16;;;;;;;12.23;7.93;;;22.30;99.90;;;;;;5059759;28;20693;-68
2022/08/23 05:58:45;;;;;;;13.80;8.07;;;22.40;99.90;;;;;;5066362;28;20216;-68
2022/08/23 06:01:13;;;;;;;12.70;7.60;;;22.50;99.90;;;;;;5062517;28;20209;-69
2022/08/23 06:03:40;;;;;;;13.25;8.50;;;22.60;99.90;;;;;;5069329;28;20665;-70
2022/08/23 06:06:07;;;;;;;12.70;8.20;;;22.70;99.90;;;;;;5068637;28;20205;-68
2022/08/23 06:08:35;;;;;;;12.60;7.93;;;22.80;99.90;;;;;;5053282;28;20209;-70
2022/08/23 06:11:04;;;;;;;12.75;7.20;;;22.90;99.90;;;;;;5069164;28;20209;-70
2022/08/23 06:13:32;;;;;;;14.02;8.23;;;23.00;99.90;;;;;;5069481;28;20209;-69
2022/08/23 06:15:59;;;;;;;14.45;7.85;;;23.00;99.90;;;;;;5071290;28;20209;-68
2022/08/23 06:18:26;;;;;;;10.23;7.05;;;23.20;99.90;;;;;;5066017;28;20202;-69
2022/08/23 06:21:01;;;;;;;15.65;7.35;;;23.30;99.90;;;;;;5071342;28;20209;-68
2022/08/23 06:23:28;;;;;;;13.95;7.32;;;23.40;99.90;;;;;;5073709;28;20231;-68
2022/08/23 06:25:55;;;;;;;11.27;7.03;;;23.60;99.90;;;;;;5073889;28;20213;-70
2022/08/23 06:28:22;;;;;;;15.10;7.72;;;23.80;99.90;;;;;;5071878;28;20201;-69
2022/08/23 06:30:53;;;;;;;11.20;7.10;;;23.80;99.90;;;;;;5070573;28;20212;-67
2022/08/23 06:33:20;;;;;;;11.10;7.25;;;23.90;99.90;;;;;;5063845;28;20212;-68
2022/08/23 06:35:47;;;;;;;13.95;7.45;;;24.00;99.90;;;;;;5070347;28;20233;-69
2022/08/23 06:38:14;;;;;;;15.52;7.93;;;24.20;99.90;;;;;;5070756;28;20205;-66
2022/08/23 06:40:41;;;;;;;16.05;7.15;;;24.30;99.90;;;;;;5072608;28;20201;-69
2022/08/23 06:43:08;;;;;;;14.90;7.80;;;24.30;99.90;;;;;;5070247;28;20206;-70
2022/08/23 06:45:34;;;;;;;9.85;6.88;;;24.50;99.90;;;;;;5062807;28;20333;-69
2022/08/23 06:48:03;;;;;;;14.30;7.30;;;24.60;99.90;;;;;;5063733;28;20232;-70
2022/08/23 06:50:30;;;;;;;15.02;7.70;;;24.70;99.90;;;;;;5069305;28;20213;-69
2022/08/23 06:52:57;;;;;;;13.75;7.32;;;24.70;99.90;;;;;;5070353;28;20213;-69
2022/08/23 06:55:23;;;;;;;11.63;8.05;;;24.80;99.90;;;;;;5071050;28;20581;-71
2022/08/23 06:57:50;;;;;;;17.63;8.75;;;24.90;99.90;;;;;;5060728;28;20206;-69
2022/08/23 07:00:17;;;;;;;14.32;7.47;;;25.00;99.90;;;;;;5067154;28;20212;-71
2022/08/23 07:02:44;;;;;;;13.13;7.07;;;25.10;99.90;;;;;;5065457;28;20233;-69
2022/08/23 07:05:12;;;;;;;12.85;8.15;;;25.20;99.90;;;;;;5067263;28;20229;-71
2022/08/23 07:07:39;;;;;;;10.88;6.45;;;25.30;99.90;;;;;;5067960;28;20209;-69
2022/08/23 07:10:08;;;;;;;13.90;7.15;;;25.40;99.90;;;;;;5065915;28;20220;-70
2022/08/23 07:12:40;;;;;;;17.25;7.90;;;25.50;99.90;;;;;;5057150;28;20209;-70
2022/08/23 07:15:08;;;;;;;11.40;7.03;;;25.60;99.90;;;;;;5065132;28;20200;-70
2022/08/23 07:17:35;;;;;;;12.88;6.97;;;25.60;99.90;;;;;;5062108;28;20202;-71
2022/08/23 07:20:02;;;;;;;13.80;7.35;;;25.70;99.90;;;;;;5067030;28;20225;-69
2022/08/23 07:22:30;;;;;;;16.75;7.35;;;25.80;99.90;;;;;;5068972;28;20627;-69
2022/08/23 07:24:57;;;;;;;13.57;6.55;;;25.80;99.90;;;;;;5068462;28;20661;-70
2022/08/23 07:27:24;;;;;;;11.30;7.32;;;25.90;99.90;;;;;;5071118;28;20212;-67
2022/08/23 07:29:51;;;;;;;11.07;7.15;;;25.90;99.90;;;;;;5070038;28;20209;-68
2022/08/23 07:32:17;;;;;;;17.05;6.70;;;26.00;99.90;;;;;;5066081;28;20665;-68
2022/08/23 07:34:44;;;;;;;8.95;7.57;;;26.10;99.90;;;;;;5068065;28;20572;-69
2022/08/23 07:37:12;;;;;;;13.65;7.00;;;26.10;99.90;;;;;;5070133;28;20209;-69
2022/08/23 07:39:40;;;;;;;13.30;6.75;;;26.20;99.90;;;;;;5067720;28;20209;-67
2022/08/23 07:42:07;;;;;;;12.32;6.45;;;26.30;99.90;;;;;;5067281;28;20228;-67
2022/08/23 07:44:34;;;;;;;13.77;7.55;;;26.30;99.90;;;;;;5062061;28;20221;-68
2022/08/23 07:47:02;;;;;;;12.52;6.50;;;26.30;99.90;;;;;;5064712;28;20209;-68
2022/08/23 07:49:28;;;;;;;17.70;7.45;;;26.30;99.90;;;;;;5066448;28;20228;-68
2022/08/23 07:51:57;;;;;;;8.45;6.68;;;26.30;99.90;;;;;;5062331;28;20206;-68
2022/08/23 07:54:24;;;;;;;12.15;6.90;;;26.40;99.90;;;;;;5066986;28;20209;-67
2022/08/23 07:56:52;;;;;;;13.40;6.75;;;26.50;99.90;;;;;;5065234;28;20229;-70
2022/08/23 07:59:19;;;;;;;12.20;6.40;;;26.60;99.90;;;;;;5060346;28;20248;-68
2022/08/23 08:01:46;;;;;;;13.93;6.97;;;26.60;99.90;;;;;;5066067;28;20248;-68
2022/08/23 08:04:13;;;;;;;13.05;7.30;;;26.70;99.90;;;;;;5069657;28;20557;-68
2022/08/23 08:06:42;;;;;;;10.98;7.03;;;26.70;99.90;;;;;;5059505;28;20210;-69
2022/08/23 08:09:11;;;;;;;10.25;6.75;;;26.70;99.90;;;;;;5069204;28;20202;-69
2022/08/23 08:11:40;;;;;;;11.18;6.70;;;26.90;99.90;;;;;;5066948;28;20202;-69
2022/08/23 08:14:10;;;;;;;18.20;6.65;;;27.00;99.90;;;;;;5068026;28;20658;-69
2022/08/23 08:16:39;;;;;;;14.50;7.53;;;27.10;99.90;;;;;;5062597;28;20269;-68
2022/08/23 08:19:10;;;;;;;12.80;7.97;;;27.20;99.90;;;;;;5064057;28;20201;-69
2022/08/23 08:21:38;;;;;;;20.65;9.18;;;27.30;99.90;;;;;;5060344;28;20217;-68
2022/08/23 08:24:07;;;;;;;26.70;9.00;;;27.40;99.90;;;;;;5056453;28;20284;-68
2022/08/23 08:26:34;;;;;;;18.00;8.73;;;27.60;99.90;;;;;;5062676;28;20555;-69
2022/08/23 08:29:01;;;;;;;25.35;9.63;;;27.70;99.90;;;;;;5066826;28;20237;-68
2022/08/23 08:31:29;;;;;;;15.57;7.85;;;27.80;99.90;;;;;;5059369;28;20215;-68
2022/08/23 08:33:56;;;;;;;18.80;8.75;;;27.90;99.90;;;;;;5063574;28;20206;-69
2022/08/23 08:36:35;;;;;;;19.42;8.07;;;27.80;99.90;;;;;;5067565;28;20785;-68
2022/08/23 08:39:03;;;;;;;12.55;7.22;;;27.70;99.90;;;;;;5065837;28;20211;-69
2022/08/23 08:41:47;;;;;;;15.75;8.23;;;27.70;99.90;;;;;;5064240;28;20669;-69
2022/08/23 08:44:24;;;;;;;19.27;8.15;;;27.60;99.90;;;;;;5069332;28;20284;-70
2022/08/23 08:46:56;;;;;;;16.95;7.90;;;27.60;99.90;;;;;;5067962;28;20201;-71
2022/08/23 08:49:35;;;;;;;11.38;7.05;;;27.70;99.90;;;;;;5070403;28;20224;-69
2022/08/23 08:52:11;;;;;;;12.25;7.22;;;27.70;99.90;;;;;;5068466;28;20208;-69
2022/08/23 08:54:38;;;;;;;13.32;6.65;;;27.70;99.90;;;;;;5067950;28;20791;-68
2022/08/23 08:57:07;;;;;;;12.93;6.63;;;27.60;99.90;;;;;;5066375;28;20586;-68
2022/08/23 08:59:44;;;;;;;12.82;6.85;;;27.70;99.90;;;;;;5064331;28;20197;-69
2022/08/23 09:02:16;;;;;;;12.95;6.93;;;27.70;99.90;;;;;;5067935;28;20205;-68
2022/08/23 09:04:43;;;;;;;17.40;6.90;;;27.60;99.90;;;;;;5071320;28;20209;-67
2022/08/23 09:07:16;;;;;;;16.95;6.95;;;27.70;99.90;;;;;;5069902;28;20614;-68
2022/08/23 09:09:59;;;;;;;16.05;7.50;;;27.80;99.90;;;;;;5070201;28;20220;-67
2022/08/23 09:12:36;;;;;;;14.07;6.97;;;28.00;99.90;;;;;;5067286;28;20199;-67
2022/08/23 09:15:19;;;;;;;12.95;7.40;;;28.50;99.90;;;;;;5068844;28;20193;-67
2022/08/23 09:17:52;;;;;;;16.70;7.22;;;28.90;99.90;;;;;;5067139;28;20208;-67
2022/08/23 09:20:21;;;;;;;10.27;6.53;;;29.20;99.90;;;;;;5066689;28;20824;-68
2022/08/23 09:22:50;;;;;;;20.30;7.90;;;29.40;99.90;;;;;;5069255;28;20243;-67
2022/08/23 09:25:19;;;;;;;13.45;6.90;;;29.60;99.90;;;;;;5066204;28;20228;-67
2022/08/23 09:27:46;;;;;;;13.77;6.72;;;29.80;99.90;;;;;;5067203;28;20216;-67
2022/08/23 09:30:16;;;;;;;15.75;7.03;;;30.00;99.90;;;;;;5070176;28;20216;-67
2022/08/23 09:32:45;;;;;;;15.40;7.38;;;30.20;99.90;;;;;;5062496;28;20646;-67
2022/08/23 09:35:16;;;;;;;15.35;6.55;;;30.30;99.90;;;;;;5066351;28;20232;-67
2022/08/23 09:37:53;;;;;;;14.63;6.63;;;30.20;99.90;;;;;;5068659;28;20398;-67
2022/08/23 09:40:30;;;;;;;11.93;6.72;;;30.40;99.90;;;;;;5063635;28;20201;-70
2022/08/23 09:43:09;;;;;;;13.25;6.85;;;30.70;99.90;;;;;;5068598;28;20208;-67
2022/08/23 09:45:39;;;;;;;11.10;6.47;;;31.00;99.90;;;;;;5069145;28;20543;-70
2022/08/23 09:48:11;;;;;;;16.77;6.85;;;31.40;99.90;;;;;;5069216;28;20204;-67
2022/08/23 09:50:46;;;;;;;16.40;6.63;;;31.60;99.90;;;;;;5068673;28;20627;-67
2022/08/23 09:53:15;;;;;;;12.38;6.10;;;32.00;99.90;;;;;;5069172;28;20606;-68
2022/08/23 09:55:48;;;;;;;19.10;7.05;;;32.30;99.90;;;;;;5065521;28;20608;-67
2022/08/23 09:58:19;;;;;;;14.35;6.57;;;32.50;99.90;;;;;;5068911;28;20673;-66
2022/08/23 10:01:01;;;;;;;17.13;6.53;;;33.00;99.90;;;;;;5068197;28;20589;-67
2022/08/23 10:03:29;;;;;;;18.90;6.22;;;33.00;99.90;;;;;;5066005;28;20205;-68
2022/08/23 10:05:59;;;;;;;15.57;6.88;;;32.80;99.90;;;;;;5069255;28;20236;-66
2022/08/23 10:08:31;;;;;;;14.93;6.63;;;33.00;99.90;;;;;;5068931;28;20237;-68
2022/08/23 10:11:05;;;;;;;15.52;6.05;;;33.40;99.90;;;;;;5068480;28;20205;-67
2022/08/23 10:13:32;;;;;;;16.35;7.05;;;33.70;99.90;;;;;;5061937;28;20721;-67
2022/08/23 10:16:08;;;;;;;16.02;6.65;;;33.80;99.90;;;;;;5069563;28;20205;-67
2022/08/23 10:18:53;;;;;;;18.55;7.20;;;33.90;99.90;;;;;;5067666;28;20583;-67
2022/08/23 10:21:32;;;;;;;14.02;5.82;;;34.10;99.90;;;;;;5056272;28;20212;-68
2022/08/23 10:24:14;;;;;;;16.70;6.10;;;34.20;99.90;;;;;;5063833;28;20206;-66
2022/08/23 10:26:50;;;;;;;19.42;7.30;;;34.20;99.90;;;;;;5067624;28;20208;-68
2022/08/23 10:29:39;;;;;;;14.20;5.82;;;34.30;99.40;;;;;;5068940;28;20657;-66
2022/08/23 10:32:19;;;;;;;13.85;6.50;;;34.40;99.00;;;;;;5063085;28;20220;-67
2022/08/23 10:35:06;;;;;;;15.18;6.88;;;34.30;98.60;;;;;;5066143;28;20436;-66
2022/08/23 10:37:48;;;;;;;13.52;6.72;;;34.20;98.70;;;;;;5067585;28;20681;-68
2022/08/23 10:40:19;;;;;;;17.35;6.30;;;33.80;98.60;;;;;;5068945;28;20227;-68
2022/08/23 10:43:01;;;;;;;20.00;6.32;;;33.30;98.70;;;;;;5073162;28;20685;-68
2022/08/23 10:45:32;;;;;;;15.95;6.80;;;33.00;99.30;;;;;;5063624;28;20215;-68
2022/08/23 10:48:17;;;;;;;14.30;5.90;;;33.10;99.50;;;;;;5072517;28;20573;-67
2022/08/23 10:50:48;;;;;;;24.13;5.85;;;33.00;98.20;;;;;;5066152;28;20221;-67
2022/08/23 10:53:19;;;;;;;11.10;5.90;;;33.00;98.00;;;;;;5065458;28;20213;-70
2022/08/23 10:56:01;;;;;;;17.85;5.30;;;33.20;96.70;;;;;;5068784;28;20255;-68
2022/08/23 10:58:32;;;;;;;18.67;5.85;;;33.40;96.80;;;;;;5071231;28;20413;-69
2022/08/23 11:01:00;;;;;;;16.65;4.78;;;33.60;95.60;;;;;;5071247;28;20251;-69
2022/08/23 11:03:30;;;;;;;17.88;5.65;;;33.70;94.90;;;;;;5064912;28;20198;-68
2022/08/23 11:06:26;;;;;;;21.48;5.80;;;33.80;93.50;;;;;;5066376;28;20708;-69
2022/08/23 11:09:03;;;;;;;22.05;5.38;;;33.80;91.70;;;;;;5069609;28;20206;-71
2022/08/23 11:11:47;;;;;;;16.42;4.57;;;33.50;91.50;;;;;;5068793;28;20193;-71
2022/08/23 11:14:32;;;;;;;12.55;4.68;;;33.40;91.80;;;;;;5071376;28;20193;-70
2022/08/23 11:17:01;;;;;;;17.13;5.45;;;33.50;91.90;;;;;;5075420;28;20276;-69
2022/08/23 11:19:50;;;;;;;21.23;3.97;;;33.90;91.70;;;;;;5070270;28;20418;-71
2022/08/23 11:22:19;;;;;;;22.42;4.68;;;34.20;90.30;;;;;;5070203;28;20644;-69
2022/08/23 11:24:55;;;;;;;19.55;5.47;;;34.40;88.90;;;;;;5070980;28;20580;-69
2022/08/23 11:27:37;;;;;;;16.85;4.93;;;34.40;87.90;;;;;;5070044;28;20209;-68
2022/08/23 11:30:43;;;;;;;21.35;4.97;;;34.30;85.70;;;;;;5072004;28;20571;-68
2022/08/23 11:33:16;;;;;;;13.48;3.65;;;34.20;84.70;;;;;;5070057;28;20208;-69
2022/08/23 11:35:47;;;;;;;17.40;5.15;;;34.20;83.70;;;;;;5071163;28;20721;-70
2022/08/23 11:38:14;;;;;;;16.73;4.72;;;34.20;82.80;;;;;;5071713;28;20198;-71
2022/08/23 11:40:59;;;;;;;16.15;4.03;;;34.10;82.30;;;;;;5071608;28;20198;-69
2022/08/23 11:43:32;;;;;;;27.67;4.68;;;33.90;82.00;;;;;;5065646;28;20210;-70
2022/08/23 11:46:30;;;;;;;18.02;3.90;;;33.80;81.90;;;;;;5070572;28;20221;-70
2022/08/23 11:49:15;;;;;;;16.00;4.97;;;33.80;82.00;;;;;;5059358;28;20209;-70
2022/08/23 11:51:51;;;;;;;24.27;4.85;;;33.80;81.40;;;;;;5071741;28;20293;-69
2022/08/23 11:54:45;;;;;;;20.17;3.83;;;34.00;80.00;;;;;;5059837;28;20209;-69
2022/08/23 11:57:23;;;;;;;19.13;4.25;;;33.90;79.80;;;;;;5068208;28;20197;-68
2022/08/23 12:00:17;;;;;;;21.00;4.43;;;33.80;79.80;;;;;;5063345;28;20244;-69
2022/08/23 12:03:01;;;;;;;20.38;5.35;;;33.40;80.30;;;;;;5064084;28;20205;-69
2022/08/23 12:05:55;;;;;;;15.02;4.68;;;33.30;81.00;;;;;;5070619;28;20677;-69
2022/08/23 12:08:31;;;;;;;22.08;4.47;;;33.30;81.00;;;;;;5070405;28;20286;-68
2022/08/23 12:11:03;;;;;;;26.38;5.40;;;33.10;81.50;;;;;;5070176;28;20665;-69
2022/08/23 12:13:45;;;;;;;18.55;4.38;;;33.00;81.50;;;;;;5069953;28;20220;-69
2022/08/23 12:16:32;;;;;;;19.67;5.22;;;32.90;81.60;;;;;;5059277;28;20201;-68
2022/08/23 12:19:03;;;;;;;17.00;4.28;;;32.90;82.10;;;;;;5066207;28;20205;-71
2022/08/23 12:21:33;;;;;;;25.98;4.53;;;32.90;82.00;;;;;;5069348;28;20205;-70
2022/08/23 12:24:12;;;;;;;22.48;4.72;;;33.10;81.50;;;;;;5067419;28;20202;-69
2022/08/23 12:26:48;;;;;;;19.35;4.68;;;33.20;80.40;;;;;;5067469;28;20302;-70
2022/08/23 12:29:24;;;;;;;19.92;5.05;;;33.40;79.70;;;;;;5070881;28;20208;-69
2022/08/23 12:31:59;;;;;;;20.77;4.50;;;33.60;78.50;;;;;;5067466;28;20201;-68
2022/08/23 12:34:38;;;;;;;21.67;5.10;;;33.70;77.30;;;;;;5068945;28;20205;-68
2022/08/23 12:37:12;;;;;;;25.25;5.30;;;33.50;77.20;;;;;;5071058;28;20201;-70
2022/08/23 12:39:48;;;;;;;24.73;5.13;;;33.30;78.20;;;;;;5069967;28;20205;-69
2022/08/23 12:42:18;;;;;;;24.23;5.10;;;33.00;79.50;;;;;;5066228;28;20204;-69
2022/08/23 12:44:58;;;;;;;18.50;4.80;;;32.90;79.50;;;;;;5069812;28;20263;-69
2022/08/23 12:47:25;;;;;;;21.23;5.35;;;32.80;79.50;;;;;;5070460;28;20220;-68
2022/08/23 12:49:59;;;;;;;18.02;4.30;;;32.80;79.80;;;;;;5067825;28;20220;-69
2022/08/23 12:52:28;;;;;;;18.77;4.88;;;32.90;79.80;;;;;;5066037;28;20293;-68
2022/08/23 12:54:56;;;;;;;21.58;4.75;;;33.10;79.90;;;;;;5068876;28;20210;-68
2022/08/23 12:57:31;;;;;;;26.83;4.95;;;33.30;79.50;;;;;;5070430;28;20315;-68
2022/08/23 13:00:16;;;;;;;23.52;4.72;;;33.40;79.40;;;;;;5069960;28;20211;-68
2022/08/23 13:02:47;;;;;;;16.88;4.38;;;33.60;77.60;;;;;;5068031;28;20619;-68